Time;durP1;ratioP1;P1;durP2;ratioP2;P2;SDS_P1;SDS_P2;PMS_P1;PMS_P2;Temp;Humidity;BMP_temperature;BMP_pressure;BME280_temperature;BME280_humidity;BME280_pressure;Samples;Min_cycle;Max_cycle;Signal;HPM_P1;HPM_P2
2021/12/16 09:53:13;;;;;;;37.08;9.80;;;15.20;90.10;;;;;;4204911;27;20336;-64
2021/12/16 09:55:36;;;;;;;32.83;10.57;;;15.20;90.40;;;;;;4203201;28;20068;-59
2021/12/16 09:57:58;;;;;;;37.67;10.60;;;15.20;90.60;;;;;;4200997;28;20058;-61
2021/12/16 10:00:25;;;;;;;38.90;9.20;;;15.30;90.10;;;;;;4203078;28;20472;-61
2021/12/16 10:02:48;;;;;;;40.60;9.70;;;15.40;89.90;;;;;;4203115;28;20052;-59
2021/12/16 10:05:11;;;;;;;32.85;10.45;;;15.40;89.70;;;;;;4203839;28;20052;-59
2021/12/16 10:07:34;;;;;;;31.20;10.05;;;15.50;89.40;;;;;;4203452;28;20048;-59
2021/12/16 10:09:59;;;;;;;51.63;10.23;;;15.60;89.20;;;;;;4202696;28;20060;-60
2021/12/16 10:12:27;;;;;;;36.85;9.50;;;15.60;89.00;;;;;;4200949;28;20387;-59
2021/12/16 10:15:08;;;;;;;36.58;9.95;;;15.60;88.70;;;;;;4203213;28;20040;-59
2021/12/16 10:17:32;;;;;;;55.38;10.75;;;15.60;88.60;;;;;;4203553;28;20063;-61
2021/12/16 10:19:56;;;;;;;39.53;10.18;;;15.60;88.40;;;;;;4204016;28;20058;-59
2021/12/16 10:22:33;;;;;;;47.45;10.60;;;15.60;88.40;;;;;;4203683;28;20044;-60
2021/12/16 10:25:15;;;;;;;32.35;9.90;;;15.60;88.30;;;;;;4202818;28;20048;-60
2021/12/16 10:27:57;;;;;;;29.75;8.98;;;15.60;88.30;;;;;;4202526;28;20059;-59
2021/12/16 10:30:19;;;;;;;37.20;10.15;;;15.60;88.20;;;;;;4201157;28;20056;-60
2021/12/16 10:32:45;;;;;;;47.50;9.45;;;15.60;88.30;;;;;;4203481;28;20067;-59
2021/12/16 10:35:12;;;;;;;44.75;10.23;;;15.60;88.30;;;;;;4203106;28;20052;-59
2021/12/16 10:37:37;;;;;;;33.97;9.23;;;15.60;88.30;;;;;;4203236;28;20048;-59
2021/12/16 10:40:25;;;;;;;33.83;9.98;;;15.60;88.30;;;;;;4203994;28;20578;-60
2021/12/16 10:42:49;;;;;;;30.63;9.63;;;15.60;88.20;;;;;;4201425;28;20060;-59
2021/12/16 10:45:27;;;;;;;22.98;10.02;;;15.60;88.30;;;;;;4203087;28;20476;-60
2021/12/16 10:48:26;;;;;;;40.95;10.40;;;15.60;88.30;;;;;;4202930;28;20165;-59
2021/12/16 10:51:00;;;;;;;36.58;10.38;;;15.50;88.30;;;;;;4203547;28;20072;-60
2021/12/16 10:54:01;;;;;;;37.22;11.18;;;15.50;88.30;;;;;;4203482;28;20048;-60
2021/12/16 10:56:27;;;;;;;48.58;10.65;;;15.50;88.40;;;;;;4167198;28;20562;-60
2021/12/16 10:58:53;;;;;;;35.58;10.93;;;15.50;88.40;;;;;;4167348;28;20432;-60
2021/12/16 11:01:41;;;;;;;23.20;9.93;;;15.50;88.40;;;;;;4184925;28;20048;-59
2021/12/16 11:04:06;;;;;;;43.83;11.63;;;15.50;88.40;;;;;;4194384;28;20539;-60
2021/12/16 11:06:31;;;;;;;42.05;11.10;;;15.40;88.50;;;;;;4191741;28;20495;-60
2021/12/16 11:08:54;;;;;;;43.85;12.18;;;15.50;88.60;;;;;;4192051;28;21587;-60
2021/12/16 11:11:16;;;;;;;51.25;12.50;;;15.40;88.50;;;;;;4190964;28;20052;-60
2021/12/16 11:13:41;;;;;;;39.85;12.00;;;15.40;88.60;;;;;;4191829;28;20131;-60
2021/12/16 11:16:05;;;;;;;49.60;12.75;;;15.40;88.70;;;;;;4191214;28;20417;-59
2021/12/16 11:18:28;;;;;;;43.08;11.60;;;15.40;88.70;;;;;;4192000;28;20123;-60
2021/12/16 11:20:53;;;;;;;49.33;12.25;;;15.30;88.70;;;;;;4191855;28;20509;-59
2021/12/16 11:23:19;;;;;;;45.25;12.65;;;15.30;88.90;;;;;;4190950;28;20045;-60
2021/12/16 11:25:43;;;;;;;58.10;12.43;;;15.30;89.00;;;;;;4192167;28;20098;-60
2021/12/16 11:28:15;;;;;;;40.58;12.20;;;15.30;89.10;;;;;;4191630;28;20055;-58
2021/12/16 11:30:42;;;;;;;53.33;11.93;;;15.20;89.10;;;;;;4191336;28;20373;-57
2021/12/16 11:33:16;;;;;;;37.10;11.70;;;15.20;90.00;;;;;;4191696;28;20480;-58
2021/12/16 11:35:45;;;;;;;36.20;10.90;;;15.20;89.40;;;;;;4191474;28;20054;-57
2021/12/16 11:38:13;;;;;;;39.50;12.48;;;15.20;89.50;;;;;;4191324;28;20049;-58
2021/12/16 11:41:11;;;;;;;35.72;12.60;;;15.20;89.60;;;;;;4191747;28;20048;-58
2021/12/16 11:43:40;;;;;;;44.08;12.40;;;15.20;89.60;;;;;;4191064;28;20056;-58
2021/12/16 11:46:04;;;;;;;37.53;12.18;;;15.10;89.80;;;;;;4190898;28;20480;-58
2021/12/16 11:48:35;;;;;;;38.85;12.40;;;15.10;89.80;;;;;;4191498;28;20045;-58
2021/12/16 11:51:05;;;;;;;30.40;11.95;;;15.10;89.80;;;;;;4191283;28;20102;-59
2021/12/16 11:53:35;;;;;;;37.08;11.98;;;15.10;89.80;;;;;;4191042;28;20139;-60
2021/12/16 11:55:57;;;;;;;40.30;12.95;;;15.10;90.00;;;;;;4191574;28;20489;-60
2021/12/16 11:58:19;;;;;;;35.75;12.25;;;15.10;90.00;;;;;;4190804;28;20495;-59
2021/12/16 12:00:42;;;;;;;29.65;11.20;;;15.10;90.00;;;;;;4190895;28;20122;-59
2021/12/16 12:03:07;;;;;;;31.48;13.52;;;15.10;90.00;;;;;;4191202;28;20152;-60
2021/12/16 12:05:33;;;;;;;36.33;12.20;;;15.00;90.00;;;;;;4190811;28;20052;-60
2021/12/16 12:07:58;;;;;;;58.60;14.25;;;15.00;90.00;;;;;;4190900;28;20049;-62
2021/12/16 12:10:38;;;;;;;51.38;13.57;;;15.00;90.00;;;;;;4191088;28;20438;-62
2021/12/16 12:13:03;;;;;;;43.60;14.82;;;15.10;90.20;;;;;;4190287;28;20131;-63
2021/12/16 12:15:25;;;;;;;39.35;13.23;;;15.10;90.20;;;;;;4189390;28;20059;-64
2021/12/16 12:17:50;;;;;;;38.70;12.20;;;15.20;90.20;;;;;;4190500;28;20098;-61
2021/12/16 12:20:13;;;;;;;42.75;12.60;;;15.30;90.10;;;;;;4189615;28;20052;-61
2021/12/16 12:22:36;;;;;;;44.45;13.20;;;15.40;89.90;;;;;;4190419;28;20059;-61
2021/12/16 12:24:58;;;;;;;34.90;12.95;;;15.50;89.40;;;;;;4191127;28;20074;-61
2021/12/16 12:27:23;;;;;;;27.13;12.88;;;15.50;89.10;;;;;;4190633;28;20056;-63
2021/12/16 12:29:48;;;;;;;28.52;13.93;;;15.60;88.80;;;;;;4190608;28;20044;-61
2021/12/16 12:32:13;;;;;;;19.55;12.82;;;15.70;88.60;;;;;;4190600;28;20487;-61
2021/12/16 12:34:40;;;;;;;26.95;13.07;;;15.70;88.50;;;;;;4190860;28;20096;-61
2021/12/16 12:37:05;;;;;;;21.83;12.93;;;15.70;88.20;;;;;;4190828;28;20052;-61
2021/12/16 12:39:39;;;;;;;21.08;12.07;;;15.70;88.10;;;;;;4190672;28;20057;-61
2021/12/16 12:42:01;;;;;;;19.52;11.35;;;15.70;88.00;;;;;;4190559;28;20063;-60
2021/12/16 12:44:25;;;;;;;16.48;10.55;;;15.80;87.90;;;;;;4190393;28;20527;-60
2021/12/16 12:46:50;;;;;;;13.95;10.63;;;15.80;87.70;;;;;;4190231;28;20071;-61
2021/12/16 12:49:15;;;;;;;22.35;12.18;;;15.80;87.70;;;;;;4191034;28;20135;-61
2021/12/16 12:51:39;;;;;;;17.88;11.10;;;15.80;87.60;;;;;;4190059;28;20076;-61
2021/12/16 12:54:24;;;;;;;19.42;11.60;;;15.80;87.50;;;;;;4190453;28;21269;-61
2021/12/16 12:56:48;;;;;;;29.08;12.20;;;15.90;87.40;;;;;;4190341;28;20076;-61
2021/12/16 12:59:12;;;;;;;19.55;11.88;;;15.90;87.30;;;;;;4190031;28;20060;-61
2021/12/16 13:01:41;;;;;;;19.73;11.80;;;15.90;87.20;;;;;;4190334;28;20052;-61
2021/12/16 13:04:07;;;;;;;17.25;12.23;;;15.90;87.20;;;;;;4190155;28;20032;-60
2021/12/16 13:06:29;;;;;;;19.58;10.75;;;15.90;87.20;;;;;;4190322;28;20064;-61
2021/12/16 13:08:51;;;;;;;20.10;12.63;;;15.80;87.40;;;;;;4189721;28;20529;-61
2021/12/16 13:11:17;;;;;;;24.88;13.15;;;15.90;87.40;;;;;;4189876;28;20148;-61
2021/12/16 13:13:59;;;;;;;23.17;13.45;;;16.00;86.90;;;;;;4190196;28;20044;-61
2021/12/16 13:16:51;;;;;;;18.80;12.35;;;16.10;86.30;;;;;;4189678;28;20197;-61
2021/12/16 13:27:34;;;;;;;20.48;13.63;;;16.30;85.20;;;;;;4188983;28;20483;-61
2021/12/16 13:30:06;;;;;;;15.77;11.93;;;16.30;86.10;;;;;;4188232;28;20102;-61
2021/12/16 13:32:39;;;;;;;17.13;10.45;;;16.30;85.40;;;;;;4188465;28;20076;-60
2021/12/16 13:35:21;;;;;;;17.77;11.73;;;16.30;85.50;;;;;;4188583;28;20404;-60
2021/12/16 13:37:45;;;;;;;22.30;12.10;;;16.30;85.50;;;;;;4189170;28;20056;-60
2021/12/16 13:40:18;;;;;;;19.13;11.57;;;16.40;85.20;;;;;;4188514;28;20066;-61
2021/12/16 13:42:44;;;;;;;20.45;11.20;;;16.40;85.00;;;;;;4189154;28;20071;-62
2021/12/16 13:45:13;;;;;;;16.27;11.00;;;16.40;85.00;;;;;;4189110;28;20056;-60
2021/12/16 14:01:49;;;;;;;18.05;11.30;;;17.00;83.70;;;;;;4173260;28;20052;-60
2021/12/16 14:04:55;;;;;;;17.00;11.38;;;17.10;82.90;;;;;;4188990;28;20048;-61
2021/12/16 14:07:39;;;;;;;17.73;11.10;;;17.20;82.30;;;;;;4189535;28;20071;-60
2021/12/16 14:10:08;;;;;;;18.30;11.00;;;17.30;82.10;;;;;;4188795;28;20055;-60
2021/12/16 14:15:20;;;;;;;20.10;10.90;;;17.20;82.10;;;;;;4189651;28;20044;-60
2021/12/16 14:17:54;;;;;;;19.02;10.88;;;17.10;82.40;;;;;;4189936;28;20036;-60
2021/12/16 14:23:09;;;;;;;23.65;12.38;;;17.00;83.00;;;;;;4189442;28;20047;-60
2021/12/16 14:25:37;;;;;;;26.85;12.07;;;16.90;83.30;;;;;;4189212;28;20456;-60
2021/12/16 14:39:39;;;;;;;23.77;11.43;;;16.50;84.90;;;;;;4189793;28;20049;-62
2021/12/16 14:42:12;;;;;;;24.13;12.10;;;16.40;85.20;;;;;;4191796;28;20045;-59
2021/12/16 14:47:51;;;;;;;28.35;13.48;;;16.30;85.60;;;;;;4191968;28;20052;-60
2021/12/16 14:50:19;;;;;;;23.48;12.52;;;16.20;85.90;;;;;;4190709;28;20071;-60
2021/12/16 14:52:42;;;;;;;28.60;13.70;;;16.20;86.20;;;;;;4191372;28;20500;-61
2021/12/16 14:55:09;;;;;;;26.63;13.23;;;16.10;86.40;;;;;;4191948;28;20044;-67
2021/12/16 14:57:36;;;;;;;26.63;13.85;;;16.10;86.60;;;;;;4191077;28;20047;-60
2021/12/16 14:59:58;;;;;;;26.10;13.63;;;16.00;86.70;;;;;;4194200;28;20056;-58
2021/12/16 15:02:25;;;;;;;25.27;14.00;;;16.00;86.90;;;;;;4194818;28;20199;-60
2021/12/16 15:04:47;;;;;;;26.35;12.90;;;16.00;87.10;;;;;;4193908;28;20159;-61
2021/12/16 15:07:12;;;;;;;24.00;11.90;;;15.90;87.10;;;;;;4193731;28;20067;-61
2021/12/16 15:09:38;;;;;;;24.00;12.85;;;15.90;87.30;;;;;;4192212;28;20072;-59
2021/12/16 15:12:08;;;;;;;23.30;12.70;;;15.90;87.40;;;;;;4177659;28;20053;-61
2021/12/16 15:14:47;;;;;;;27.83;13.05;;;15.90;87.50;;;;;;4176985;28;20128;-59
2021/12/16 15:17:24;;;;;;;29.83;13.88;;;15.80;87.50;;;;;;4177291;28;20118;-60
2021/12/16 15:36:36;;;;;;;13.02;7.97;;;16.20;86.40;;;;;;4192104;28;20114;-61
2021/12/16 15:39:19;;;;;;;14.82;7.88;;;16.30;86.10;;;;;;4176741;28;20073;-61
2021/12/16 15:44:22;;;;;;;13.05;7.07;;;16.30;86.10;;;;;;4176389;28;20094;-60
2021/12/16 15:46:44;;;;;;;15.52;7.00;;;16.50;85.70;;;;;;4178144;28;20473;-59
2021/12/16 15:49:08;;;;;;;13.85;8.52;;;16.90;84.50;;;;;;4176422;28;20049;-61
2021/12/16 15:51:30;;;;;;;16.42;8.02;;;17.40;82.00;;;;;;4176511;28;20072;-60
2021/12/16 15:54:17;;;;;;;12.98;8.15;;;18.10;79.20;;;;;;4176440;28;20950;-60
2021/12/16 15:56:41;;;;;;;14.50;7.53;;;18.90;75.90;;;;;;4188057;28;20061;-60
2021/12/16 15:59:06;;;;;;;13.38;7.90;;;19.60;72.50;;;;;;4193332;28;20511;-60
2021/12/16 16:01:31;;;;;;;14.80;8.32;;;20.30;69.60;;;;;;4193082;28;20052;-65
2021/12/16 16:03:54;;;;;;;11.93;7.60;;;20.80;67.20;;;;;;4193315;28;20052;-62
2021/12/16 16:06:18;;;;;;;13.80;7.25;;;21.10;65.40;;;;;;4183435;28;20057;-69
2021/12/16 16:08:47;;;;;;;12.75;6.85;;;21.30;65.30;;;;;;4182180;28;20045;-62
2021/12/16 16:11:12;;;;;;;9.63;6.68;;;21.40;63.80;;;;;;4191480;28;20048;-60
2021/12/16 16:13:41;;;;;;;8.93;6.70;;;21.30;63.70;;;;;;4193121;28;20143;-61
2021/12/16 16:16:06;;;;;;;8.32;6.88;;;21.20;64.30;;;;;;4181236;28;20036;-64
2021/12/16 16:18:36;;;;;;;12.88;7.22;;;20.90;65.20;;;;;;4192895;28;20419;-60
2021/12/16 16:21:01;;;;;;;11.57;7.00;;;20.70;66.30;;;;;;4192522;28;20048;-61
2021/12/16 16:23:25;;;;;;;11.68;6.57;;;20.40;67.50;;;;;;4192824;28;20076;-60
2021/12/16 16:25:47;;;;;;;10.32;7.85;;;20.20;69.00;;;;;;4177748;28;20048;-61
2021/12/16 16:28:14;;;;;;;16.08;8.90;;;20.00;69.90;;;;;;4176258;28;20474;-61
2021/12/16 16:30:37;;;;;;;9.85;7.72;;;20.00;70.10;;;;;;4176503;28;20053;-60
2021/12/16 16:33:05;;;;;;;13.27;8.43;;;20.00;70.00;;;;;;4185023;28;20083;-63
2021/12/16 16:35:28;;;;;;;10.98;8.05;;;20.00;70.10;;;;;;4180217;28;20049;-60
2021/12/16 16:37:50;;;;;;;12.10;8.20;;;20.00;70.40;;;;;;4192023;28;20068;-61
2021/12/16 16:40:13;;;;;;;13.30;8.48;;;20.00;70.50;;;;;;4190769;28;20056;-63
2021/12/16 16:42:38;;;;;;;10.73;8.52;;;20.00;70.40;;;;;;4175846;28;20072;-61
2021/12/16 16:45:02;;;;;;;12.77;8.55;;;20.00;70.20;;;;;;4175941;28;20049;-63
2021/12/16 16:47:31;;;;;;;13.93;8.95;;;20.00;70.10;;;;;;4183010;28;20068;-63
2021/12/16 16:49:54;;;;;;;15.65;9.23;;;20.00;70.40;;;;;;4192354;28;20088;-63
2021/12/16 16:52:19;;;;;;;16.63;10.30;;;19.90;70.50;;;;;;4191764;28;20430;-62
2021/12/16 16:54:45;;;;;;;12.70;8.38;;;19.90;70.60;;;;;;4181135;28;20148;-63
2021/12/16 16:57:10;;;;;;;14.95;9.60;;;19.80;70.90;;;;;;4189828;28;20064;-62
2021/12/16 16:59:37;;;;;;;13.85;8.95;;;19.80;71.50;;;;;;4192405;28;20067;-62
2021/12/16 17:02:01;;;;;;;15.18;9.55;;;19.70;71.60;;;;;;4191718;28;20048;-61
2021/12/16 17:04:24;;;;;;;16.30;10.25;;;19.70;71.90;;;;;;4192119;28;20048;-60
2021/12/16 17:06:50;;;;;;;13.93;9.25;;;19.60;72.00;;;;;;4178957;28;20076;-60
2021/12/16 17:09:12;;;;;;;16.83;10.00;;;19.50;72.50;;;;;;4175317;28;20353;-61
2021/12/16 17:11:40;;;;;;;12.45;9.23;;;19.50;72.80;;;;;;4184730;28;20454;-61
2021/12/16 17:14:12;;;;;;;15.00;9.80;;;19.50;72.80;;;;;;4176880;28;20546;-61
2021/12/16 17:19:19;;;;;;;14.82;10.43;;;19.60;72.40;;;;;;4191944;28;20392;-62
2021/12/16 17:21:47;;;;;;;13.68;9.93;;;19.60;72.20;;;;;;4191974;28;20408;-60
2021/12/16 17:24:14;;;;;;;14.75;10.45;;;19.70;72.00;;;;;;4190976;28;20056;-61
2021/12/16 17:26:40;;;;;;;16.58;10.43;;;19.70;72.10;;;;;;4191754;28;20479;-60
2021/12/16 17:29:06;;;;;;;18.55;10.85;;;19.70;71.80;;;;;;4190809;28;20041;-60
2021/12/16 17:31:37;;;;;;;16.70;11.60;;;19.60;71.90;;;;;;4184575;28;20106;-60
2021/12/16 17:34:11;;;;;;;15.88;11.15;;;19.60;72.20;;;;;;4175375;28;20072;-63
2021/12/16 17:36:35;;;;;;;19.13;11.32;;;19.60;72.30;;;;;;4174928;28;20545;-60
2021/12/16 17:39:08;;;;;;;15.98;11.55;;;19.50;72.60;;;;;;4175080;28;20558;-62
2021/12/16 17:41:30;;;;;;;15.85;10.77;;;19.50;72.80;;;;;;4174672;28;20061;-60
2021/12/16 17:43:52;;;;;;;13.60;10.55;;;19.50;72.90;;;;;;4183500;28;20437;-61
2021/12/16 17:46:19;;;;;;;15.65;11.02;;;19.50;72.90;;;;;;4180990;28;20135;-60
2021/12/16 17:48:45;;;;;;;14.65;10.25;;;19.40;73.20;;;;;;4175002;28;20053;-60
2021/12/16 17:51:10;;;;;;;17.40;11.25;;;19.30;73.60;;;;;;4174633;28;20049;-60
2021/12/16 17:53:36;;;;;;;17.00;11.25;;;19.30;73.70;;;;;;4173076;28;20064;-61
2021/12/16 17:56:04;;;;;;;16.02;10.30;;;19.30;73.80;;;;;;4181663;28;20468;-61
2021/12/16 17:58:29;;;;;;;14.70;11.40;;;19.40;73.60;;;;;;4191568;28;20056;-62
2021/12/16 18:00:55;;;;;;;18.70;12.73;;;19.50;73.40;;;;;;4174955;28;20076;-61
2021/12/16 18:03:23;;;;;;;20.33;12.13;;;19.60;73.00;;;;;;4174184;28;20049;-63
2021/12/16 18:05:49;;;;;;;19.83;13.25;;;19.60;72.60;;;;;;4174374;28;20049;-61
2021/12/16 18:08:11;;;;;;;16.88;13.00;;;19.70;72.30;;;;;;4183115;28;20056;-61
2021/12/16 18:10:35;;;;;;;16.83;12.30;;;19.70;72.20;;;;;;4179255;28;20045;-60
2021/12/16 18:13:05;;;;;;;16.65;12.60;;;19.70;72.20;;;;;;4177277;28;20080;-61
2021/12/16 18:15:29;;;;;;;21.77;11.48;;;19.60;72.40;;;;;;4194781;28;20574;-60
2021/12/16 18:17:54;;;;;;;16.63;11.60;;;19.60;72.60;;;;;;4194942;28;20059;-61
2021/12/16 18:20:21;;;;;;;18.45;13.00;;;19.60;72.60;;;;;;4191106;28;20056;-61
2021/12/16 18:22:45;;;;;;;16.35;12.55;;;19.60;72.50;;;;;;4194313;28;20134;-60
2021/12/16 18:25:11;;;;;;;16.25;11.70;;;19.60;72.50;;;;;;4194613;28;20049;-61
2021/12/16 18:27:40;;;;;;;16.67;12.40;;;19.60;72.70;;;;;;4194226;28;20041;-60
2021/12/16 18:30:14;;;;;;;19.33;11.85;;;19.50;73.00;;;;;;4180554;28;20056;-61
2021/12/16 18:32:39;;;;;;;19.17;12.77;;;19.40;73.20;;;;;;4189674;28;20377;-60
2021/12/16 18:35:04;;;;;;;18.58;12.65;;;19.40;74.30;;;;;;4194560;28;20130;-60
2021/12/16 18:37:29;;;;;;;19.42;12.85;;;19.50;73.40;;;;;;4194363;28;20048;-58
2021/12/16 18:39:53;;;;;;;18.63;12.88;;;19.50;73.00;;;;;;4192215;28;20144;-59
2021/12/16 18:42:20;;;;;;;20.73;12.15;;;19.50;73.20;;;;;;4194506;28;20131;-60
2021/12/16 18:44:46;;;;;;;23.33;13.23;;;19.40;73.30;;;;;;4182845;28;20459;-61
2021/12/16 18:47:25;;;;;;;17.85;12.52;;;19.40;73.50;;;;;;4177295;28;20472;-61
2021/12/16 18:49:49;;;;;;;23.52;14.80;;;19.30;73.70;;;;;;4177286;28;20493;-61
2021/12/16 18:52:24;;;;;;;22.98;14.15;;;19.30;74.20;;;;;;4183591;28;20439;-62
2021/12/16 18:54:47;;;;;;;22.23;14.05;;;19.20;74.30;;;;;;4177352;28;20048;-59
2021/12/16 18:57:14;;;;;;;20.30;13.73;;;19.20;74.40;;;;;;4177416;28;20068;-59
2021/12/16 18:59:36;;;;;;;23.77;14.40;;;19.10;74.70;;;;;;4189837;28;20044;-59
2021/12/16 19:02:06;;;;;;;21.40;14.20;;;19.10;75.10;;;;;;4188169;28;20515;-60
2021/12/16 19:04:32;;;;;;;24.33;13.43;;;19.10;75.40;;;;;;4177509;28;20052;-61
2021/12/16 19:06:57;;;;;;;25.60;14.50;;;19.10;75.10;;;;;;4177450;28;20060;-61
2021/12/16 19:09:22;;;;;;;27.15;14.85;;;19.30;74.80;;;;;;4178108;28;20404;-60
2021/12/16 19:11:52;;;;;;;27.65;15.85;;;19.30;74.50;;;;;;4185635;28;20131;-60
2021/12/16 19:14:17;;;;;;;23.15;15.15;;;19.30;74.30;;;;;;4193453;28;20051;-62
2021/12/16 19:16:39;;;;;;;25.73;15.40;;;19.30;74.50;;;;;;4192145;28;20119;-61
2021/12/16 19:19:04;;;;;;;25.27;14.75;;;19.30;74.30;;;;;;4183294;28;20067;-61
2021/12/16 19:21:45;;;;;;;25.35;16.13;;;19.30;74.20;;;;;;4184751;28;20063;-60
2021/12/16 19:24:08;;;;;;;24.02;15.27;;;19.30;74.30;;;;;;4193368;28;20452;-61
2021/12/16 19:26:35;;;;;;;24.88;15.50;;;19.20;74.40;;;;;;4177191;28;20467;-62
2021/12/16 19:28:58;;;;;;;28.73;15.80;;;19.20;74.70;;;;;;4177047;28;20045;-61
2021/12/16 19:31:22;;;;;;;23.83;15.85;;;19.10;75.10;;;;;;4177163;28;20048;-60
2021/12/16 19:33:45;;;;;;;30.42;16.88;;;19.10;75.10;;;;;;4183711;28;20455;-60
2021/12/16 19:36:10;;;;;;;25.58;16.27;;;19.20;75.00;;;;;;4177104;28;20045;-61
2021/12/16 19:38:33;;;;;;;24.17;15.70;;;19.30;74.60;;;;;;4185202;28;20049;-61
2021/12/16 19:40:59;;;;;;;25.73;16.15;;;19.30;74.20;;;;;;4193491;28;20041;-61
2021/12/16 19:43:21;;;;;;;27.35;15.32;;;19.30;74.20;;;;;;4189018;28;20052;-63
2021/12/16 19:45:48;;;;;;;23.95;15.30;;;19.40;74.30;;;;;;4179517;28;20056;-61
2021/12/16 19:48:11;;;;;;;25.85;17.15;;;19.40;74.20;;;;;;4177303;28;20102;-62
2021/12/16 19:50:35;;;;;;;26.95;16.15;;;19.30;74.00;;;;;;4193222;28;20131;-62
2021/12/16 19:52:59;;;;;;;27.77;15.88;;;19.30;74.30;;;;;;4192543;28;20040;-62
2021/12/16 19:55:21;;;;;;;24.73;14.73;;;19.30;74.50;;;;;;4193539;28;20044;-61
2021/12/16 19:57:47;;;;;;;25.70;16.08;;;19.40;74.40;;;;;;4188645;28;20053;-63
2021/12/16 20:00:13;;;;;;;25.63;15.68;;;19.40;74.10;;;;;;4177113;28;20080;-61
2021/12/16 20:02:39;;;;;;;22.63;15.43;;;19.40;74.00;;;;;;4176019;28;20037;-61
2021/12/16 20:05:05;;;;;;;23.02;14.85;;;19.40;74.10;;;;;;4176680;28;20053;-62
2021/12/16 20:07:27;;;;;;;19.77;14.20;;;19.30;74.10;;;;;;4176468;28;20067;-61
2021/12/16 20:09:54;;;;;;;24.30;14.90;;;19.30;74.40;;;;;;4179447;28;20036;-62
2021/12/16 20:12:20;;;;;;;22.88;15.05;;;19.20;74.60;;;;;;4193054;28;20365;-62
2021/12/16 20:14:43;;;;;;;21.50;14.10;;;19.20;75.00;;;;;;4192989;28;20048;-62
2021/12/16 20:17:07;;;;;;;21.60;14.20;;;19.00;75.40;;;;;;4190279;28;20040;-62
2021/12/16 20:19:31;;;;;;;19.08;14.18;;;19.00;75.90;;;;;;4192556;28;20048;-61
2021/12/16 20:21:58;;;;;;;21.55;14.52;;;18.80;77.00;;;;;;4176431;28;20496;-62
2021/12/16 20:24:23;;;;;;;24.70;14.75;;;18.70;76.80;;;;;;4177257;28;20155;-61
2021/12/16 20:26:51;;;;;;;19.98;12.90;;;18.60;77.30;;;;;;4182431;28;20044;-61
2021/12/16 20:29:17;;;;;;;22.42;15.00;;;18.50;77.60;;;;;;4190643;28;20045;-60
2021/12/16 20:31:44;;;;;;;23.20;14.13;;;18.40;78.10;;;;;;4192552;28;20515;-61
2021/12/16 20:34:13;;;;;;;20.77;14.93;;;18.30;78.50;;;;;;4192629;28;20052;-61
2021/12/16 20:36:39;;;;;;;24.45;14.88;;;18.20;78.90;;;;;;4191539;28;20541;-62
2021/12/16 20:39:08;;;;;;;21.05;13.45;;;18.10;79.30;;;;;;4182195;28;20045;-60
2021/12/16 20:41:35;;;;;;;25.17;15.27;;;18.00;79.60;;;;;;4188816;28;20052;-61
2021/12/16 20:44:03;;;;;;;24.52;15.75;;;17.90;80.20;;;;;;4192645;28;20045;-61
2021/12/16 20:46:28;;;;;;;22.20;14.82;;;17.90;80.50;;;;;;4191634;28;20126;-61
2021/12/16 20:48:54;;;;;;;21.90;14.18;;;17.80;80.90;;;;;;4192111;28;20052;-61
2021/12/16 20:51:25;;;;;;;22.75;14.55;;;17.80;81.30;;;;;;4185470;28;20056;-62
2021/12/16 20:53:48;;;;;;;23.83;15.02;;;17.70;81.50;;;;;;4175938;28;20147;-61
2021/12/16 20:56:11;;;;;;;25.23;16.45;;;17.60;81.80;;;;;;4175188;28;20136;-62
2021/12/16 20:58:37;;;;;;;24.25;16.58;;;17.60;82.70;;;;;;4182269;28;20049;-61
2021/12/16 21:01:05;;;;;;;22.70;15.18;;;17.60;82.30;;;;;;4176080;28;20055;-64
2021/12/16 21:03:27;;;;;;;24.42;15.68;;;17.50;82.30;;;;;;4175368;28;20055;-61
2021/12/16 21:05:52;;;;;;;23.40;14.75;;;17.40;82.70;;;;;;4175378;28;20169;-61
2021/12/16 21:08:17;;;;;;;20.90;14.27;;;17.40;82.70;;;;;;4179793;28;20052;-61
2021/12/16 21:10:40;;;;;;;22.50;14.80;;;17.40;83.10;;;;;;4187133;28;20076;-61
2021/12/16 21:13:03;;;;;;;20.30;14.85;;;17.30;83.10;;;;;;4175124;28;20470;-61
2021/12/16 21:15:26;;;;;;;23.35;15.18;;;17.30;83.30;;;;;;4180207;28;20060;-62
2021/12/16 21:17:50;;;;;;;26.20;16.40;;;17.20;83.40;;;;;;4176482;28;20493;-62
2021/12/16 21:20:14;;;;;;;26.20;16.55;;;17.20;83.40;;;;;;4174098;28;20045;-61
2021/12/16 21:22:37;;;;;;;25.30;15.95;;;17.20;83.60;;;;;;4176780;28;20049;-61
2021/12/16 21:24:59;;;;;;;23.90;16.75;;;17.10;84.00;;;;;;4174665;28;20118;-60
2021/12/16 21:27:23;;;;;;;25.23;16.60;;;17.10;83.90;;;;;;4175184;28;20056;-62
2021/12/16 21:29:45;;;;;;;27.73;17.15;;;17.10;84.00;;;;;;4175137;28;20083;-63
2021/12/16 21:32:07;;;;;;;26.10;17.10;;;17.00;84.20;;;;;;4176332;28;20044;-64
2021/12/16 21:34:38;;;;;;;24.70;16.35;;;17.00;84.20;;;;;;4190677;28;20052;-64
2021/12/16 21:37:08;;;;;;;27.48;18.27;;;17.00;84.30;;;;;;4191323;28;20048;-64
2021/12/16 21:39:30;;;;;;;25.02;16.73;;;16.90;84.80;;;;;;4190450;28;21058;-68
2021/12/16 21:41:54;;;;;;;24.58;16.80;;;16.90;85.00;;;;;;4191813;28;20077;-63
2021/12/16 21:44:17;;;;;;;25.88;16.73;;;16.90;84.90;;;;;;4175974;28;20377;-63
2021/12/16 21:46:39;;;;;;;25.98;16.45;;;16.80;85.00;;;;;;4192130;28;20052;-61
2021/12/16 21:49:01;;;;;;;26.38;16.38;;;16.80;85.10;;;;;;4190799;28;20476;-62
2021/12/16 21:51:26;;;;;;;22.33;14.20;;;16.80;85.20;;;;;;4192281;28;20553;-61
2021/12/16 21:53:48;;;;;;;27.42;16.65;;;16.80;85.30;;;;;;4190485;28;20496;-61
2021/12/16 21:56:11;;;;;;;27.70;16.48;;;16.80;85.50;;;;;;4189190;28;20442;-62
2021/12/16 21:58:36;;;;;;;29.80;17.90;;;16.70;85.50;;;;;;4177037;28;20060;-62
2021/12/16 22:01:00;;;;;;;26.85;16.80;;;16.70;85.40;;;;;;4190482;28;20140;-61
2021/12/16 22:03:33;;;;;;;25.85;17.35;;;16.70;85.70;;;;;;4191529;28;20078;-61
2021/12/16 22:05:57;;;;;;;29.33;17.40;;;16.70;85.70;;;;;;4190592;28;20059;-61
2021/12/16 22:08:20;;;;;;;28.92;18.55;;;16.70;85.90;;;;;;4186240;28;20467;-61
2021/12/16 22:10:43;;;;;;;31.77;19.00;;;16.70;85.80;;;;;;4175366;28;20136;-61
2021/12/16 22:13:06;;;;;;;27.63;16.90;;;16.60;85.80;;;;;;4174874;28;20049;-61
2021/12/16 22:15:30;;;;;;;30.52;18.33;;;16.60;85.90;;;;;;4176213;28;20052;-61
2021/12/16 22:17:52;;;;;;;34.50;19.10;;;16.60;86.00;;;;;;4175440;28;20408;-61
2021/12/16 22:20:19;;;;;;;31.38;18.40;;;16.60;86.00;;;;;;4175413;28;20045;-61
2021/12/16 22:22:42;;;;;;;37.90;19.80;;;16.60;86.00;;;;;;4174534;28;20068;-61
2021/12/16 22:25:06;;;;;;;34.95;20.02;;;16.60;86.20;;;;;;4176335;28;20106;-61
2021/12/16 22:27:28;;;;;;;36.38;20.73;;;16.50;86.10;;;;;;4175283;28;20400;-61
2021/12/16 22:29:50;;;;;;;32.13;18.30;;;16.50;86.10;;;;;;4174918;28;20056;-61
2021/12/16 22:32:13;;;;;;;30.70;17.73;;;16.50;86.10;;;;;;4188028;28;20048;-61
2021/12/16 22:34:35;;;;;;;30.60;18.08;;;16.50;86.10;;;;;;4189422;28;20063;-61
2021/12/16 22:37:00;;;;;;;30.13;17.52;;;16.50;86.20;;;;;;4175029;28;20136;-62
2021/12/16 22:39:25;;;;;;;31.15;16.83;;;16.50;86.20;;;;;;4174599;28;20462;-60
2021/12/16 22:41:49;;;;;;;26.92;16.77;;;16.40;86.10;;;;;;4172664;28;20051;-61
2021/12/16 22:44:12;;;;;;;28.95;16.05;;;16.40;86.00;;;;;;4175401;28;20049;-61
2021/12/16 22:46:35;;;;;;;24.00;14.57;;;16.40;86.10;;;;;;4191736;28;20048;-61
2021/12/16 22:48:57;;;;;;;19.40;10.48;;;16.40;86.00;;;;;;4172021;28;20166;-61
2021/12/16 22:51:20;;;;;;;23.10;11.65;;;16.40;86.10;;;;;;4173791;28;20074;-59
2021/12/16 22:54:01;;;;;;;19.90;10.75;;;16.30;86.20;;;;;;4186012;28;20123;-59
2021/12/16 22:56:24;;;;;;;18.90;11.02;;;16.30;86.30;;;;;;4175007;28;20057;-59
2021/12/16 22:58:48;;;;;;;23.33;11.77;;;16.30;86.30;;;;;;4174700;28;20126;-60
2021/12/16 23:01:14;;;;;;;17.27;9.35;;;16.30;86.30;;;;;;4177948;28;20515;-59
2021/12/16 23:03:38;;;;;;;18.90;9.25;;;16.30;86.30;;;;;;4177254;28;20063;-59
2021/12/16 23:06:00;;;;;;;18.80;9.65;;;16.30;87.10;;;;;;4177776;28;20447;-59
2021/12/16 23:08:25;;;;;;;15.10;8.90;;;16.30;86.30;;;;;;4177606;28;20068;-59
2021/12/16 23:10:48;;;;;;;14.10;8.73;;;16.20;86.20;;;;;;4176515;28;20041;-60
2021/12/16 23:13:11;;;;;;;10.85;6.50;;;16.30;86.20;;;;;;4177744;28;20045;-59
2021/12/16 23:23:43;;;;;;;13.20;8.10;;;16.20;86.20;;;;;;4177029;28;20049;-59
2021/12/16 23:26:06;;;;;;;15.52;8.60;;;16.20;86.40;;;;;;4179243;28;20045;-59
2021/12/16 23:28:29;;;;;;;16.40;8.77;;;16.10;86.30;;;;;;4191081;28;20440;-59
2021/12/16 23:30:52;;;;;;;13.05;8.15;;;16.10;86.30;;;;;;4193649;28;20067;-60